sensor_id;sensor_type;location;lat;lon;timestamp;pressure;altitude;pressure_sealevel;temperature;humidity
22653;BME280;11493;43.344;26.226;2023-01-19T00:00:56;98355.53;;;14.60;87.95
22653;BME280;11493;43.344;26.226;2023-01-19T00:03:23;98349.69;;;14.65;87.63
22653;BME280;11493;43.344;26.226;2023-01-19T00:05:50;98358.50;;;14.70;87.20
22653;BME280;11493;43.344;26.226;2023-01-19T00:08:18;98358.00;;;14.65;87.44
22653;BME280;11493;43.344;26.226;2023-01-19T00:10:47;98361.88;;;14.60;87.39
22653;BME280;11493;43.344;26.226;2023-01-19T00:13:14;98359.03;;;14.57;88.03
22653;BME280;11493;43.344;26.226;2023-01-19T00:15:43;98369.38;;;14.60;88.06
22653;BME280;11493;43.344;26.226;2023-01-19T00:18:10;98375.28;;;14.58;88.03
22653;BME280;11493;43.344;26.226;2023-01-19T00:20:38;98385.63;;;14.61;87.97
22653;BME280;11493;43.344;26.226;2023-01-19T00:23:05;98381.63;;;14.59;88.00
22653;BME280;11493;43.344;26.226;2023-01-19T00:25:36;98386.72;;;14.57;88.40
22653;BME280;11493;43.344;26.226;2023-01-19T00:28:13;98355.72;;;14.32;88.16
22653;BME280;11493;43.344;26.226;2023-01-19T00:30:41;98372.56;;;14.42;88.62
22653;BME280;11493;43.344;26.226;2023-01-19T00:33:09;98384.59;;;14.50;88.33
22653;BME280;11493;43.344;26.226;2023-01-19T00:35:36;98389.31;;;14.50;88.52
22653;BME280;11493;43.344;26.226;2023-01-19T00:38:03;98378.25;;;14.50;88.11
22653;BME280;11493;43.344;26.226;2023-01-19T00:40:30;98405.78;;;14.42;89.18
22653;BME280;11493;43.344;26.226;2023-01-19T00:42:57;98397.28;;;14.35;89.34
22653;BME280;11493;43.344;26.226;2023-01-19T00:45:26;98404.00;;;14.34;89.37
22653;BME280;11493;43.344;26.226;2023-01-19T00:47:53;98409.78;;;14.45;89.30
22653;BME280;11493;43.344;26.226;2023-01-19T00:50:24;98409.00;;;14.44;89.26
22653;BME280;11493;43.344;26.226;2023-01-19T00:52:53;98410.16;;;14.43;89.53
22653;BME280;11493;43.344;26.226;2023-01-19T00:55:21;98404.34;;;14.33;89.85
22653;BME280;11493;43.344;26.226;2023-01-19T00:57:48;98407.19;;;14.36;90.16
22653;BME280;11493;43.344;26.226;2023-01-19T01:00:16;98393.28;;;14.33;89.85
22653;BME280;11493;43.344;26.226;2023-01-19T01:02:46;98407.56;;;14.35;90.19
22653;BME280;11493;43.344;26.226;2023-01-19T01:05:15;98410.31;;;14.51;89.51
22653;BME280;11493;43.344;26.226;2023-01-19T01:07:43;98410.91;;;14.60;88.95
22653;BME280;11493;43.344;26.226;2023-01-19T01:10:14;98411.84;;;14.67;88.60
22653;BME280;11493;43.344;26.226;2023-01-19T01:12:41;98392.25;;;14.57;88.97
22653;BME280;11493;43.344;26.226;2023-01-19T01:15:25;98402.44;;;14.53;89.39
22653;BME280;11493;43.344;26.226;2023-01-19T01:17:53;98405.88;;;14.65;88.85
22653;BME280;11493;43.344;26.226;2023-01-19T01:20:25;98412.44;;;14.57;89.20
22653;BME280;11493;43.344;26.226;2023-01-19T01:22:54;98410.91;;;14.60;88.95
22653;BME280;11493;43.344;26.226;2023-01-19T01:25:24;98406.00;;;14.53;89.42
22653;BME280;11493;43.344;26.226;2023-01-19T01:27:52;98407.53;;;14.51;89.96
22653;BME280;11493;43.344;26.226;2023-01-19T01:30:19;98396.47;;;14.51;89.64
22653;BME280;11493;43.344;26.226;2023-01-19T01:32:47;98400.91;;;14.55;89.13
22653;BME280;11493;43.344;26.226;2023-01-19T01:35:15;98411.69;;;14.60;89.19
22653;BME280;11493;43.344;26.226;2023-01-19T01:37:42;98387.28;;;14.46;88.82
22653;BME280;11493;43.344;26.226;2023-01-19T01:40:12;98402.88;;;14.55;89.11
22653;BME280;11493;43.344;26.226;2023-01-19T01:42:40;98404.56;;;14.59;88.56
22653;BME280;11493;43.344;26.226;2023-01-19T01:50:49;98408.66;;;14.65;88.29
22653;BME280;11493;43.344;26.226;2023-01-19T01:53:36;98392.84;;;14.66;87.75
22653;BME280;11493;43.344;26.226;2023-01-19T01:56:08;98407.56;;;14.70;87.69
22653;BME280;11493;43.344;26.226;2023-01-19T01:58:36;98405.94;;;14.69;87.93
22653;BME280;11493;43.344;26.226;2023-01-19T02:01:05;98410.25;;;14.66;88.03
22653;BME280;11493;43.344;26.226;2023-01-19T02:03:55;98418.13;;;14.64;88.25
22653;BME280;11493;43.344;26.226;2023-01-19T02:06:23;98408.00;;;14.72;87.75
22653;BME280;11493;43.344;26.226;2023-01-19T02:08:58;98401.06;;;14.62;87.76
22653;BME280;11493;43.344;26.226;2023-01-19T02:11:47;98420.22;;;14.71;87.82
22653;BME280;11493;43.344;26.226;2023-01-19T02:14:34;98404.72;;;14.66;88.13
22653;BME280;11493;43.344;26.226;2023-01-19T02:17:04;98410.25;;;14.66;87.83
22653;BME280;11493;43.344;26.226;2023-01-19T02:19:40;98414.03;;;14.58;87.82
22653;BME280;11493;43.344;26.226;2023-01-19T02:22:19;98419.72;;;14.65;87.52
22653;BME280;11493;43.344;26.226;2023-01-19T02:24:49;98420.66;;;14.73;87.07
22653;BME280;11493;43.344;26.226;2023-01-19T02:27:17;98416.44;;;14.60;87.44
22653;BME280;11493;43.344;26.226;2023-01-19T02:29:45;98424.69;;;14.75;86.91
22653;BME280;11493;43.344;26.226;2023-01-19T02:32:12;98425.75;;;14.71;86.97
22653;BME280;11493;43.344;26.226;2023-01-19T02:34:39;98423.38;;;14.69;86.93
22653;BME280;11493;43.344;26.226;2023-01-19T02:37:11;98430.72;;;14.62;87.47
22653;BME280;11493;43.344;26.226;2023-01-19T02:39:49;98435.97;;;14.67;87.00
22653;BME280;11493;43.344;26.226;2023-01-19T02:42:28;98435.38;;;14.58;87.36
22653;BME280;11493;43.344;26.226;2023-01-19T02:44:58;98425.97;;;14.62;87.27
22653;BME280;11493;43.344;26.226;2023-01-19T02:47:25;98429.84;;;14.58;87.15
22653;BME280;11493;43.344;26.226;2023-01-19T02:49:56;98436.19;;;14.58;87.34
22653;BME280;11493;43.344;26.226;2023-01-19T02:52:24;98427.44;;;14.56;87.31
22653;BME280;11493;43.344;26.226;2023-01-19T02:55:12;98445.66;;;14.57;87.07
22653;BME280;11493;43.344;26.226;2023-01-19T02:57:50;98436.47;;;14.53;87.51
22653;BME280;11493;43.344;26.226;2023-01-19T03:00:27;98424.44;;;14.45;87.49
22653;BME280;11493;43.344;26.226;2023-01-19T03:08:54;98403.59;;;14.52;86.37
22653;BME280;11493;43.344;26.226;2023-01-19T03:11:26;98415.19;;;14.57;86.28
22653;BME280;11493;43.344;26.226;2023-01-19T03:14:19;98426.84;;;14.66;86.33
22653;BME280;11493;43.344;26.226;2023-01-19T03:16:50;98443.03;;;14.64;86.11
22653;BME280;11493;43.344;26.226;2023-01-19T03:19:26;98457.69;;;14.65;86.46
22653;BME280;11493;43.344;26.226;2023-01-19T03:22:02;98451.84;;;14.70;86.07
22653;BME280;11493;43.344;26.226;2023-01-19T03:24:35;98453.81;;;14.69;86.17
22653;BME280;11493;43.344;26.226;2023-01-19T03:27:17;98468.78;;;14.84;85.48
22653;BME280;11493;43.344;26.226;2023-01-19T03:29:50;98453.31;;;14.64;86.37
22653;BME280;11493;43.344;26.226;2023-01-19T03:32:21;98461.59;;;14.64;86.37
22653;BME280;11493;43.344;26.226;2023-01-19T03:34:50;98457.97;;;14.60;86.76
22653;BME280;11493;43.344;26.226;2023-01-19T03:37:19;98463.50;;;14.60;86.78
22653;BME280;11493;43.344;26.226;2023-01-19T03:39:47;98471.88;;;14.63;86.58
22653;BME280;11493;43.344;26.226;2023-01-19T03:42:15;98474.84;;;14.55;87.30
22653;BME280;11493;43.344;26.226;2023-01-19T03:44:44;98473.44;;;14.45;87.30
22653;BME280;11493;43.344;26.226;2023-01-19T03:47:13;98476.28;;;14.49;87.13
22653;BME280;11493;43.344;26.226;2023-01-19T03:49:42;98479.06;;;14.49;87.44
22653;BME280;11493;43.344;26.226;2023-01-19T03:52:10;98491.91;;;14.41;87.50
22653;BME280;11493;43.344;26.226;2023-01-19T03:54:39;98493.44;;;14.38;87.63
22653;BME280;11493;43.344;26.226;2023-01-19T03:57:06;98493.34;;;14.35;87.97
22653;BME280;11493;43.344;26.226;2023-01-19T03:59:33;98498.63;;;14.24;88.29
22653;BME280;11493;43.344;26.226;2023-01-19T04:02:00;98479.75;;;14.10;88.40
22653;BME280;11493;43.344;26.226;2023-01-19T04:04:27;98493.19;;;14.28;88.28
22653;BME280;11493;43.344;26.226;2023-01-19T04:06:54;98489.59;;;14.27;88.26
22653;BME280;11493;43.344;26.226;2023-01-19T04:09:21;98472.31;;;14.14;88.25
22653;BME280;11493;43.344;26.226;2023-01-19T04:11:48;98478.31;;;14.01;88.99
22653;BME280;11493;43.344;26.226;2023-01-19T04:14:15;98475.22;;;14.02;88.75
22653;BME280;11493;43.344;26.226;2023-01-19T04:16:42;98497.34;;;14.02;88.80
22653;BME280;11493;43.344;26.226;2023-01-19T04:19:09;98471.03;;;13.93;88.98
22653;BME280;11493;43.344;26.226;2023-01-19T04:21:36;98482.97;;;13.97;88.89
22653;BME280;11493;43.344;26.226;2023-01-19T04:24:03;98490.19;;;14.01;88.94
22653;BME280;11493;43.344;26.226;2023-01-19T04:26:30;98483.16;;;14.04;88.55
22653;BME280;11493;43.344;26.226;2023-01-19T04:28:57;98506.25;;;13.96;88.85
22653;BME280;11493;43.344;26.226;2023-01-19T04:31:23;98509.38;;;13.94;88.98
22653;BME280;11493;43.344;26.226;2023-01-19T04:33:50;98499.84;;;13.92;88.96
22653;BME280;11493;43.344;26.226;2023-01-19T04:36:17;98505.81;;;13.94;89.05
22653;BME280;11493;43.344;26.226;2023-01-19T04:38:44;98505.28;;;13.88;89.06
22653;BME280;11493;43.344;26.226;2023-01-19T04:41:12;98510.34;;;13.86;89.07
22653;BME280;11493;43.344;26.226;2023-01-19T04:43:39;98510.97;;;13.79;89.26
22653;BME280;11493;43.344;26.226;2023-01-19T04:46:06;98506.06;;;13.73;89.30
22653;BME280;11493;43.344;26.226;2023-01-19T04:48:33;98507.22;;;13.72;89.65
22653;BME280;11493;43.344;26.226;2023-01-19T04:51:00;98510.59;;;13.65;89.60
22653;BME280;11493;43.344;26.226;2023-01-19T04:53:27;98507.38;;;13.63;89.99
22653;BME280;11493;43.344;26.226;2023-01-19T04:55:54;98511.66;;;13.61;90.28
22653;BME280;11493;43.344;26.226;2023-01-19T04:58:21;98521.13;;;13.60;90.29
22653;BME280;11493;43.344;26.226;2023-01-19T05:00:48;98521.81;;;13.57;90.33
22653;BME280;11493;43.344;26.226;2023-01-19T05:03:17;98503.38;;;13.61;89.90
22653;BME280;11493;43.344;26.226;2023-01-19T05:05:45;98505.88;;;13.66;89.85
22653;BME280;11493;43.344;26.226;2023-01-19T05:08:12;98510.75;;;13.57;90.10
22653;BME280;11493;43.344;26.226;2023-01-19T05:10:39;98512.47;;;13.61;90.17
22653;BME280;11493;43.344;26.226;2023-01-19T05:13:07;98519.97;;;13.61;90.08
22653;BME280;11493;43.344;26.226;2023-01-19T05:15:34;98530.66;;;13.62;90.11
22653;BME280;11493;43.344;26.226;2023-01-19T05:18:01;98530.22;;;13.60;89.75
22653;BME280;11493;43.344;26.226;2023-01-19T05:20:28;98530.41;;;13.67;89.92
22653;BME280;11493;43.344;26.226;2023-01-19T05:22:55;98538.44;;;13.72;89.29
22653;BME280;11493;43.344;26.226;2023-01-19T05:25:22;98540.50;;;13.75;88.99
22653;BME280;11493;43.344;26.226;2023-01-19T05:27:49;98552.00;;;13.77;88.96
22653;BME280;11493;43.344;26.226;2023-01-19T05:30:16;98545.56;;;13.73;88.92
22653;BME280;11493;43.344;26.226;2023-01-19T05:32:43;98549.03;;;13.70;89.24
22653;BME280;11493;43.344;26.226;2023-01-19T05:35:10;98553.41;;;13.71;89.33
22653;BME280;11493;43.344;26.226;2023-01-19T05:37:38;98557.16;;;13.63;89.76
22653;BME280;11493;43.344;26.226;2023-01-19T05:40:06;98554.94;;;13.85;88.52
22653;BME280;11493;43.344;26.226;2023-01-19T05:42:35;98547.47;;;13.85;88.22
22653;BME280;11493;43.344;26.226;2023-01-19T05:45:03;98557.44;;;13.90;88.08
22653;BME280;11493;43.344;26.226;2023-01-19T05:47:30;98544.53;;;13.94;87.63
22653;BME280;11493;43.344;26.226;2023-01-19T05:49:57;98544.25;;;13.99;87.44
22653;BME280;11493;43.344;26.226;2023-01-19T05:52:24;98546.41;;;13.90;87.59
22653;BME280;11493;43.344;26.226;2023-01-19T05:54:51;98544.72;;;14.01;87.07
22653;BME280;11493;43.344;26.226;2023-01-19T05:57:21;98546.75;;;14.04;87.10
22653;BME280;11493;43.344;26.226;2023-01-19T05:59:48;98550.13;;;14.13;87.11
22653;BME280;11493;43.344;26.226;2023-01-19T06:02:15;98544.09;;;14.07;87.14
22653;BME280;11493;43.344;26.226;2023-01-19T06:04:42;98538.47;;;14.04;87.34
22653;BME280;11493;43.344;26.226;2023-01-19T06:07:09;98552.47;;;14.11;87.13
22653;BME280;11493;43.344;26.226;2023-01-19T06:09:36;98557.63;;;14.12;87.38
22653;BME280;11493;43.344;26.226;2023-01-19T06:12:03;98547.22;;;14.06;87.66
22653;BME280;11493;43.344;26.226;2023-01-19T06:14:30;98534.81;;;14.00;87.71
22653;BME280;11493;43.344;26.226;2023-01-19T06:16:58;98555.59;;;14.09;87.49
22653;BME280;11493;43.344;26.226;2023-01-19T06:19:25;98557.38;;;14.02;87.87
22653;BME280;11493;43.344;26.226;2023-01-19T06:21:51;98563.34;;;14.04;87.67
22653;BME280;11493;43.344;26.226;2023-01-19T06:24:19;98577.38;;;14.11;87.44
22653;BME280;11493;43.344;26.226;2023-01-19T06:26:46;98574.06;;;14.05;87.46
22653;BME280;11493;43.344;26.226;2023-01-19T06:29:13;98575.81;;;14.13;86.80
22653;BME280;11493;43.344;26.226;2023-01-19T06:31:40;98586.88;;;14.13;87.04
22653;BME280;11493;43.344;26.226;2023-01-19T06:34:08;98596.09;;;14.18;86.46
22653;BME280;11493;43.344;26.226;2023-01-19T06:36:35;98607.81;;;14.11;86.62
22653;BME280;11493;43.344;26.226;2023-01-19T06:39:02;98611.44;;;14.15;86.52
22653;BME280;11493;43.344;26.226;2023-01-19T06:41:32;98597.25;;;14.17;86.28
22653;BME280;11493;43.344;26.226;2023-01-19T06:44:00;98624.81;;;14.13;86.58
22653;BME280;11493;43.344;26.226;2023-01-19T06:46:27;98624.75;;;14.09;86.67
22653;BME280;11493;43.344;26.226;2023-01-19T06:48:54;98615.44;;;14.18;86.46
22653;BME280;11493;43.344;26.226;2023-01-19T06:51:22;98621.97;;;14.25;86.20
22653;BME280;11493;43.344;26.226;2023-01-19T06:53:49;98625.19;;;14.27;86.31
22653;BME280;11493;43.344;26.226;2023-01-19T06:56:16;98619.91;;;14.22;86.65
22653;BME280;11493;43.344;26.226;2023-01-19T06:58:46;98614.03;;;14.24;86.31
22653;BME280;11493;43.344;26.226;2023-01-19T07:01:13;98626.78;;;14.28;86.74
22653;BME280;11493;43.344;26.226;2023-01-19T07:03:40;98618.03;;;14.26;86.86
22653;BME280;11493;43.344;26.226;2023-01-19T07:06:07;98616.72;;;14.36;86.71
22653;BME280;11493;43.344;26.226;2023-01-19T07:08:35;98634.50;;;14.51;85.93
22653;BME280;11493;43.344;26.226;2023-01-19T07:11:08;98636.13;;;14.52;85.80
22653;BME280;11493;43.344;26.226;2023-01-19T07:13:55;98632.19;;;14.53;86.31
22653;BME280;11493;43.344;26.226;2023-01-19T07:16:22;98639.69;;;14.68;85.32
22653;BME280;11493;43.344;26.226;2023-01-19T07:18:50;98633.69;;;14.82;84.97
22653;BME280;11493;43.344;26.226;2023-01-19T07:21:17;98618.44;;;14.72;84.60
22653;BME280;11493;43.344;26.226;2023-01-19T07:23:48;98620.91;;;14.77;85.14
22653;BME280;11493;43.344;26.226;2023-01-19T07:26:15;98625.25;;;14.94;84.15
22653;BME280;11493;43.344;26.226;2023-01-19T07:28:46;98615.94;;;15.02;83.22
22653;BME280;11493;43.344;26.226;2023-01-19T07:31:14;98610.41;;;15.21;82.97
22653;BME280;11493;43.344;26.226;2023-01-19T07:33:41;98602.69;;;15.30;82.16
22653;BME280;11493;43.344;26.226;2023-01-19T07:36:08;98600.38;;;15.32;81.56
22653;BME280;11493;43.344;26.226;2023-01-19T07:38:36;98593.16;;;15.47;81.01
22653;BME280;11493;43.344;26.226;2023-01-19T07:41:05;98587.97;;;15.45;81.02
22653;BME280;11493;43.344;26.226;2023-01-19T07:43:33;98584.72;;;15.59;80.19
22653;BME280;11493;43.344;26.226;2023-01-19T07:46:03;98594.75;;;15.67;79.74
22653;BME280;11493;43.344;26.226;2023-01-19T07:48:31;98598.97;;;15.81;78.51
22653;BME280;11493;43.344;26.226;2023-01-19T07:50:59;98596.78;;;15.90;78.09
22653;BME280;11493;43.344;26.226;2023-01-19T07:53:26;98600.28;;;15.87;78.76
22653;BME280;11493;43.344;26.226;2023-01-19T07:55:54;98593.13;;;15.86;78.32
22653;BME280;11493;43.344;26.226;2023-01-19T07:58:23;98594.75;;;15.87;77.66
22653;BME280;11493;43.344;26.226;2023-01-19T08:00:50;98601.56;;;16.12;76.63
22653;BME280;11493;43.344;26.226;2023-01-19T08:03:17;98593.22;;;16.12;76.46
22653;BME280;11493;43.344;26.226;2023-01-19T08:05:49;98571.63;;;16.25;74.51
22653;BME280;11493;43.344;26.226;2023-01-19T08:08:17;98586.31;;;16.25;75.47
22653;BME280;11493;43.344;26.226;2023-01-19T08:10:44;98576.16;;;16.36;74.71
22653;BME280;11493;43.344;26.226;2023-01-19T08:13:11;98584.56;;;16.40;74.71
22653;BME280;11493;43.344;26.226;2023-01-19T08:15:39;98585.53;;;16.51;74.01
22653;BME280;11493;43.344;26.226;2023-01-19T08:18:06;98589.44;;;16.47;74.49
22653;BME280;11493;43.344;26.226;2023-01-19T08:20:35;98592.00;;;16.59;73.28
22653;BME280;11493;43.344;26.226;2023-01-19T08:23:02;98596.97;;;16.69;73.20
22653;BME280;11493;43.344;26.226;2023-01-19T08:25:36;98597.41;;;16.71;72.97
22653;BME280;11493;43.344;26.226;2023-01-19T08:28:05;98606.63;;;16.79;72.45
22653;BME280;11493;43.344;26.226;2023-01-19T08:30:32;98613.84;;;16.83;71.95
22653;BME280;11493;43.344;26.226;2023-01-19T08:33:00;98607.22;;;16.91;70.60
22653;BME280;11493;43.344;26.226;2023-01-19T08:35:31;98617.97;;;16.93;71.15
22653;BME280;11493;43.344;26.226;2023-01-19T08:37:58;98616.53;;;17.02;70.31
22653;BME280;11493;43.344;26.226;2023-01-19T08:40:28;98606.66;;;17.08;69.60
22653;BME280;11493;43.344;26.226;2023-01-19T08:42:59;98609.38;;;17.01;70.06
22653;BME280;11493;43.344;26.226;2023-01-19T08:45:30;98608.19;;;17.02;69.06
22653;BME280;11493;43.344;26.226;2023-01-19T08:47:57;98602.69;;;17.06;68.74
22653;BME280;11493;43.344;26.226;2023-01-19T08:50:29;98597.41;;;16.97;69.15
22653;BME280;11493;43.344;26.226;2023-01-19T08:52:57;98588.97;;;17.20;68.19
22653;BME280;11493;43.344;26.226;2023-01-19T08:55:25;98603.22;;;17.19;68.73
22653;BME280;11493;43.344;26.226;2023-01-19T08:57:54;98608.78;;;17.19;68.69
22653;BME280;11493;43.344;26.226;2023-01-19T09:00:23;98609.00;;;17.33;67.92
22653;BME280;11493;43.344;26.226;2023-01-19T09:02:51;98599.03;;;17.32;68.07
22653;BME280;11493;43.344;26.226;2023-01-19T09:05:18;98607.91;;;17.41;67.92
22653;BME280;11493;43.344;26.226;2023-01-19T09:07:46;98615.88;;;17.42;67.43
22653;BME280;11493;43.344;26.226;2023-01-19T09:10:17;98622.59;;;17.41;68.09
22653;BME280;11493;43.344;26.226;2023-01-19T09:12:44;98618.28;;;17.44;67.86
22653;BME280;11493;43.344;26.226;2023-01-19T09:15:12;98626.03;;;17.61;67.39
22653;BME280;11493;43.344;26.226;2023-01-19T09:17:44;98611.56;;;17.49;67.38
22653;BME280;11493;43.344;26.226;2023-01-19T09:20:11;98612.34;;;17.46;67.86
22653;BME280;11493;43.344;26.226;2023-01-19T09:22:39;98612.56;;;17.63;66.90
22653;BME280;11493;43.344;26.226;2023-01-19T09:25:07;98598.34;;;17.68;67.30
22653;BME280;11493;43.344;26.226;2023-01-19T09:27:34;98600.38;;;17.71;66.41
22653;BME280;11493;43.344;26.226;2023-01-19T09:30:02;98595.31;;;17.81;67.00
22653;BME280;11493;43.344;26.226;2023-01-19T09:32:29;98602.84;;;17.84;66.02
22653;BME280;11493;43.344;26.226;2023-01-19T09:34:56;98588.25;;;17.94;66.07
22653;BME280;11493;43.344;26.226;2023-01-19T09:37:23;98589.13;;;18.01;65.87
22653;BME280;11493;43.344;26.226;2023-01-19T09:39:50;98583.94;;;18.00;66.33
22653;BME280;11493;43.344;26.226;2023-01-19T09:42:44;98589.59;;;18.07;64.46
22653;BME280;11493;43.344;26.226;2023-01-19T09:47:44;98556.25;;;18.14;64.43
22653;BME280;11493;43.344;26.226;2023-01-19T09:50:25;98549.16;;;18.20;63.88
22653;BME280;11493;43.344;26.226;2023-01-19T09:53:09;98534.13;;;18.28;63.24
22653;BME280;11493;43.344;26.226;2023-01-19T09:55:40;98538.03;;;18.20;63.36
22653;BME280;11493;43.344;26.226;2023-01-19T09:58:12;98528.97;;;18.30;63.19
22653;BME280;11493;43.344;26.226;2023-01-19T10:00:43;98526.22;;;18.37;62.36
22653;BME280;11493;43.344;26.226;2023-01-19T10:03:14;98531.38;;;18.35;63.41
22653;BME280;11493;43.344;26.226;2023-01-19T10:05:51;98519.34;;;18.24;63.12
22653;BME280;11493;43.344;26.226;2023-01-19T10:11:35;98515.09;;;18.37;63.79
22653;BME280;11493;43.344;26.226;2023-01-19T10:17:52;98520.72;;;18.45;62.86
22653;BME280;11493;43.344;26.226;2023-01-19T10:20:28;98505.25;;;18.58;62.62
22653;BME280;11493;43.344;26.226;2023-01-19T10:22:59;98519.94;;;18.48;63.30
22653;BME280;11493;43.344;26.226;2023-01-19T10:25:28;98508.78;;;18.48;63.19
22653;BME280;11493;43.344;26.226;2023-01-19T10:27:57;98519.59;;;18.60;62.80
22653;BME280;11493;43.344;26.226;2023-01-19T10:30:27;98508.34;;;18.42;62.54
22653;BME280;11493;43.344;26.226;2023-01-19T10:32:55;98505.50;;;18.31;62.78
22653;BME280;11493;43.344;26.226;2023-01-19T10:35:23;98512.38;;;18.48;62.60
22653;BME280;11493;43.344;26.226;2023-01-19T10:38:00;98506.13;;;18.65;61.90
22653;BME280;11493;43.344;26.226;2023-01-19T10:40:54;98503.63;;;18.50;62.05
22653;BME280;11493;43.344;26.226;2023-01-19T10:43:42;98492.47;;;18.46;61.53
22653;BME280;11493;43.344;26.226;2023-01-19T10:46:19;98502.88;;;18.56;61.73
22653;BME280;11493;43.344;26.226;2023-01-19T10:48:48;98476.59;;;18.54;61.65
22653;BME280;11493;43.344;26.226;2023-01-19T10:51:16;98487.44;;;18.66;61.24
22653;BME280;11493;43.344;26.226;2023-01-19T10:53:58;98468.19;;;18.47;62.29
22653;BME280;11493;43.344;26.226;2023-01-19T10:56:36;98458.75;;;18.62;62.13
22653;BME280;11493;43.344;26.226;2023-01-19T10:59:05;98461.44;;;18.48;62.20
22653;BME280;11493;43.344;26.226;2023-01-19T11:01:32;98479.34;;;18.47;62.46
22653;BME280;11493;43.344;26.226;2023-01-19T11:04:21;98474.53;;;18.40;62.73
22653;BME280;11493;43.344;26.226;2023-01-19T11:07:12;98473.44;;;18.59;61.83
22653;BME280;11493;43.344;26.226;2023-01-19T11:09:39;98469.94;;;18.69;61.68
22653;BME280;11493;43.344;26.226;2023-01-19T11:12:14;98476.25;;;18.62;61.42
22653;BME280;11493;43.344;26.226;2023-01-19T11:14:42;98484.22;;;18.60;61.95
22653;BME280;11493;43.344;26.226;2023-01-19T11:17:25;98484.56;;;18.59;61.17
22653;BME280;11493;43.344;26.226;2023-01-19T11:19:58;98495.38;;;18.64;60.92
22653;BME280;11493;43.344;26.226;2023-01-19T11:22:31;98472.38;;;18.78;61.75
22653;BME280;11493;43.344;26.226;2023-01-19T11:25:01;98478.72;;;18.75;61.40
22653;BME280;11493;43.344;26.226;2023-01-19T11:27:30;98475.16;;;18.78;60.93
22653;BME280;11493;43.344;26.226;2023-01-19T11:30:19;98470.34;;;18.71;60.83
22653;BME280;11493;43.344;26.226;2023-01-19T11:32:47;98490.72;;;18.82;61.27
22653;BME280;11493;43.344;26.226;2023-01-19T11:35:47;98466.66;;;18.60;60.65
22653;BME280;11493;43.344;26.226;2023-01-19T11:38:20;98482.28;;;18.68;60.44
22653;BME280;11493;43.344;26.226;2023-01-19T11:40:56;98498.63;;;18.77;59.43
22653;BME280;11493;43.344;26.226;2023-01-19T11:43:28;98507.44;;;18.82;59.08
22653;BME280;11493;43.344;26.226;2023-01-19T11:46:13;98505.41;;;18.76;59.34
22653;BME280;11493;43.344;26.226;2023-01-19T11:49:02;98519.75;;;18.78;59.67
22653;BME280;11493;43.344;26.226;2023-01-19T11:51:39;98505.00;;;18.74;58.84
22653;BME280;11493;43.344;26.226;2023-01-19T11:54:20;98514.22;;;18.88;58.47
22653;BME280;11493;43.344;26.226;2023-01-19T11:56:50;98500.72;;;18.90;58.12
22653;BME280;11493;43.344;26.226;2023-01-19T11:59:17;98501.09;;;18.85;58.88
22653;BME280;11493;43.344;26.226;2023-01-19T12:01:52;98502.31;;;18.91;58.99
22653;BME280;11493;43.344;26.226;2023-01-19T12:04:29;98487.16;;;18.85;59.60
22653;BME280;11493;43.344;26.226;2023-01-19T12:06:59;98485.59;;;18.95;58.55
22653;BME280;11493;43.344;26.226;2023-01-19T12:09:47;98483.78;;;18.55;58.94
22653;BME280;11493;43.344;26.226;2023-01-19T12:12:29;98476.34;;;18.77;57.72
22653;BME280;11493;43.344;26.226;2023-01-19T12:17:58;98460.06;;;18.82;57.27
22653;BME280;11493;43.344;26.226;2023-01-19T12:20:39;98470.78;;;18.77;57.14
22653;BME280;11493;43.344;26.226;2023-01-19T12:25:49;98469.53;;;18.70;57.36
22653;BME280;11493;43.344;26.226;2023-01-19T12:28:26;98467.06;;;18.58;57.37
22653;BME280;11493;43.344;26.226;2023-01-19T12:30:54;98455.56;;;18.63;57.71
22653;BME280;11493;43.344;26.226;2023-01-19T12:33:37;98457.09;;;18.57;57.72
22653;BME280;11493;43.344;26.226;2023-01-19T12:43:42;98447.16;;;18.56;57.70
22653;BME280;11493;43.344;26.226;2023-01-19T12:46:27;98430.50;;;18.63;57.99
22653;BME280;11493;43.344;26.226;2023-01-19T12:49:16;98437.66;;;18.61;57.33
22653;BME280;11493;43.344;26.226;2023-01-19T12:51:47;98434.41;;;18.59;57.54
22653;BME280;11493;43.344;26.226;2023-01-19T12:54:26;98437.59;;;18.50;57.37
22653;BME280;11493;43.344;26.226;2023-01-19T12:57:07;98451.94;;;18.56;57.47
22653;BME280;11493;43.344;26.226;2023-01-19T12:59:36;98439.19;;;18.51;57.13
22653;BME280;11493;43.344;26.226;2023-01-19T13:13:30;98504.59;;;18.71;56.96
22653;BME280;11493;43.344;26.226;2023-01-19T13:18:48;98501.78;;;18.71;57.19
22653;BME280;11493;43.344;26.226;2023-01-19T13:21:31;98525.16;;;18.53;57.39
22653;BME280;11493;43.344;26.226;2023-01-19T13:24:04;98521.22;;;18.61;57.32
22653;BME280;11493;43.344;26.226;2023-01-19T13:29:33;98540.28;;;18.59;57.01
22653;BME280;11493;43.344;26.226;2023-01-19T13:32:09;98555.38;;;18.51;57.24
22653;BME280;11493;43.344;26.226;2023-01-19T13:34:42;98547.75;;;18.41;56.91
22653;BME280;11493;43.344;26.226;2023-01-19T13:37:15;98532.59;;;18.38;57.02
22653;BME280;11493;43.344;26.226;2023-01-19T13:39:45;98528.13;;;18.26;57.65
22653;BME280;11493;43.344;26.226;2023-01-19T13:44:52;98540.03;;;18.23;58.25
22653;BME280;11493;43.344;26.226;2023-01-19T13:47:41;98525.19;;;18.09;58.47
22653;BME280;11493;43.344;26.226;2023-01-19T13:50:19;98520.78;;;18.04;59.02
22653;BME280;11493;43.344;26.226;2023-01-19T13:52:47;98525.81;;;17.91;59.64
22653;BME280;11493;43.344;26.226;2023-01-19T13:55:19;98516.66;;;17.91;59.62
22653;BME280;11493;43.344;26.226;2023-01-19T13:57:48;98504.31;;;17.88;59.48
22653;BME280;11493;43.344;26.226;2023-01-19T14:00:24;98517.84;;;17.90;59.46
22653;BME280;11493;43.344;26.226;2023-01-19T14:05:51;98528.53;;;17.81;59.34